Soquel, California
Current Conditions -  °F | °C
As of 10:53 PM on Wednesday 17 Dec 2014 (Local Time) from KWVI Reporting Station
Light Rain Light Rain  
Wind Chill: 12°   Ceiling: 3500
Heat Index: 12°   Visibility: 4mi
Dew Point: 11°   Wind: 3mph
Humidity: 93%   Direction: NA
Pressure: 30.1"   Gusts: NA
Location:  36.99°N, 121.95°W
Report Text: KWVI 180653Z AUTO VRB03KT 4SM -RA BR OVC035 12/11 A3010 RMK AO2 SLP192 P0003 T01170106
Loading
Personal Weather Stations






























Interactive Weather Map New forecast layout! Learn more

10-Day Weather Forecast

Advertisements
Track Severe Weather on mobile